Time;durP1;ratioP1;P1;durP2;ratioP2;P2;SDS_P1;SDS_P2;PMS_P1;PMS_P2;Temp;Humidity;BMP_temperature;BMP_pressure;BME280_temperature;BME280_humidity;BME280_pressure;Samples;Min_cycle;Max_cycle;Signal;HPM_P1;HPM_P2
2022/05/10 00:01:26;;;;;;;4.87;1.73;;;13.20;99.90;;;;;;5074925;28;20184;-81
2022/05/10 00:03:52;;;;;;;4.57;1.30;;;13.20;99.90;;;;;;5074494;28;20219;-81
2022/05/10 00:06:18;;;;;;;4.40;2.40;;;13.20;99.90;;;;;;5056779;28;20451;-81
2022/05/10 00:08:44;;;;;;;4.17;1.90;;;13.20;99.90;;;;;;5074643;28;20304;-81
2022/05/10 00:11:10;;;;;;;5.27;1.47;;;13.20;99.90;;;;;;5074631;28;20567;-81
2022/05/10 00:13:36;;;;;;;9.93;2.37;;;13.20;99.90;;;;;;5074557;28;20194;-81
2022/05/10 00:16:04;;;;;;;7.70;1.37;;;13.20;99.90;;;;;;5074559;28;20415;-82
2022/05/10 00:18:29;;;;;;;3.47;1.80;;;13.20;99.90;;;;;;5074558;28;20413;-82
2022/05/10 00:20:55;;;;;;;4.90;1.90;;;13.20;99.90;;;;;;5074037;28;20918;-80
2022/05/10 00:23:20;;;;;;;6.80;1.77;;;13.10;99.90;;;;;;5074438;28;20172;-81
2022/05/10 00:25:46;;;;;;;4.23;1.50;;;13.10;99.90;;;;;;5074232;28;20541;-80
2022/05/10 00:28:12;;;;;;;5.07;2.17;;;13.10;99.90;;;;;;5074323;28;20186;-80
2022/05/10 00:30:38;;;;;;;4.13;1.50;;;13.10;99.90;;;;;;5074196;28;20332;-80
2022/05/10 00:33:04;;;;;;;2.83;1.70;;;13.00;99.90;;;;;;5056434;28;20179;-81
2022/05/10 00:35:32;;;;;;;6.77;2.53;;;13.00;99.90;;;;;;5073894;28;20410;-80
2022/05/10 00:38:00;;;;;;;5.30;1.67;;;13.00;99.90;;;;;;5074213;28;20419;-81
2022/05/10 00:40:32;;;;;;;5.30;2.13;;;13.00;99.90;;;;;;5056009;28;20919;-81
2022/05/10 00:43:36;;;;;;;2.50;1.10;;;13.00;99.90;;;;;;5073868;28;20432;-81
2022/05/10 00:46:11;;;;;;;6.13;2.07;;;13.00;99.90;;;;;;5074031;28;20469;-81
2022/05/10 00:48:36;;;;;;;5.10;2.07;;;12.90;99.90;;;;;;5073593;28;20417;-82
2022/05/10 00:51:11;;;;;;;5.30;1.63;;;12.90;99.90;;;;;;5073593;28;20486;-81
2022/05/10 00:53:53;;;;;;;4.67;2.00;;;12.90;99.90;;;;;;5074218;28;20271;-81
2022/05/10 00:56:48;;;;;;;5.70;3.40;;;12.90;99.90;;;;;;5073785;28;20434;-81
2022/05/10 00:59:28;;;;;;;5.70;1.60;;;12.90;99.90;;;;;;5073776;28;20442;-82
2022/05/10 01:02:01;;;;;;;2.70;1.67;;;12.80;99.90;;;;;;5073659;28;20487;-81
2022/05/10 01:04:34;;;;;;;2.40;1.33;;;12.70;99.90;;;;;;5073225;28;20500;-82
2022/05/10 01:07:16;;;;;;;6.97;2.10;;;12.70;99.90;;;;;;5073547;28;20398;-82
2022/05/10 01:09:52;;;;;;;3.60;1.30;;;12.70;99.90;;;;;;5073420;28;20420;-81
2022/05/10 01:12:40;;;;;;;5.60;1.63;;;12.70;99.90;;;;;;5073266;28;21049;-82
2022/05/10 01:15:25;;;;;;;5.80;2.90;;;12.70;99.90;;;;;;5073393;28;20416;-82
2022/05/10 01:17:55;;;;;;;4.43;2.37;;;12.70;99.90;;;;;;5073276;28;20944;-82
2022/05/10 01:20:39;;;;;;;8.80;3.03;;;12.70;99.90;;;;;;5072952;28;20461;-83
2022/05/10 01:23:15;;;;;;;4.90;1.97;;;12.70;99.90;;;;;;5073203;28;20417;-80
2022/05/10 01:26:02;;;;;;;6.43;1.93;;;12.70;99.90;;;;;;5073188;28;20419;-81
2022/05/10 01:28:58;;;;;;;4.30;2.27;;;12.60;99.90;;;;;;5073094;28;20489;-80
2022/05/10 01:33:29;;;;;;;6.13;2.00;;;12.60;99.90;;;;;;5072416;28;20564;-81
2022/05/10 01:34:37;;;;;;;5.10;2.37;;;12.60;99.90;;;;;;5072607;28;20412;-81
2022/05/10 01:37:09;;;;;;;4.93;1.70;;;12.60;99.90;;;;;;5072475;28;20567;-80
2022/05/10 01:39:41;;;;;;;4.47;1.83;;;12.60;99.90;;;;;;5072895;28;20846;-80
2022/05/10 01:42:19;;;;;;;6.43;2.20;;;12.50;99.90;;;;;;5072834;28;20496;-80
2022/05/10 01:44:54;;;;;;;3.53;1.47;;;12.50;99.90;;;;;;5073028;28;20405;-82
2022/05/10 01:47:26;;;;;;;6.77;2.33;;;12.60;99.90;;;;;;5072889;28;20472;-82
2022/05/10 01:50:02;;;;;;;3.97;1.97;;;12.60;99.90;;;;;;5072299;28;20467;-82
2022/05/10 01:53:05;;;;;;;4.87;2.27;;;12.50;99.90;;;;;;5072788;28;20473;-82
2022/05/10 01:55:42;;;;;;;6.33;2.50;;;12.50;99.90;;;;;;5072172;28;20473;-82
2022/05/10 01:58:11;;;;;;;4.60;2.10;;;12.40;99.90;;;;;;5072878;28;20447;-81
2022/05/10 02:00:39;;;;;;;4.50;1.83;;;12.50;99.90;;;;;;5072678;28;20412;-82
2022/05/10 02:03:16;;;;;;;3.67;1.83;;;12.50;99.90;;;;;;5054826;28;20432;-82
2022/05/10 02:06:08;;;;;;;5.80;2.47;;;12.50;99.90;;;;;;5072506;28;20510;-82
2022/05/10 02:08:52;;;;;;;4.60;1.87;;;12.40;99.90;;;;;;5072564;28;20458;-82
2022/05/10 02:11:18;;;;;;;5.40;2.50;;;12.50;99.90;;;;;;5072625;28;20836;-82
2022/05/10 02:14:00;;;;;;;7.50;2.17;;;12.30;1.00;;;;;;5072675;28;20429;-82
2022/05/10 02:16:36;;;;;;;2.90;1.87;;;12.30;1.00;;;;;;5054762;28;20421;-82
2022/05/10 02:19:10;;;;;;;7.10;2.33;;;12.30;1.00;;;;;;5072365;28;20808;-83
2022/05/10 02:21:47;;;;;;;3.03;1.70;;;12.30;1.00;;;;;;5072519;28;20511;-83
2022/05/10 02:24:18;;;;;;;4.20;1.60;;;12.30;1.00;;;;;;5072633;28;20458;-82
2022/05/10 02:26:55;;;;;;;4.30;1.87;;;12.20;1.00;;;;;;5072415;28;20430;-82
2022/05/10 02:29:38;;;;;;;3.60;1.50;;;12.30;1.00;;;;;;5054577;28;20459;-81
2022/05/10 02:35:10;;;;;;;3.23;2.00;;;12.20;1.00;;;;;;5072507;28;20400;-82
2022/05/10 02:37:36;;;;;;;4.33;2.20;;;12.30;1.00;;;;;;5072454;28;20448;-82
2022/05/10 02:40:03;;;;;;;4.97;2.40;;;12.20;1.00;;;;;;5072481;28;20839;-82
2022/05/10 02:42:29;;;;;;;6.27;2.20;;;12.20;1.00;;;;;;5072444;28;20166;-83
2022/05/10 02:44:55;;;;;;;5.30;2.10;;;12.20;4.70;;;;;;5072286;28;20415;-82
2022/05/10 02:47:40;;;;;;;6.20;1.70;;;12.10;50.90;;;;;;5072354;28;20166;-82
2022/05/10 02:50:18;;;;;;;5.90;1.67;;;12.10;99.90;;;;;;5074244;28;20846;-80
2022/05/10 02:52:43;;;;;;;4.50;2.47;;;12.10;99.90;;;;;;5076361;28;20905;-81
2022/05/10 02:55:15;;;;;;;5.40;2.47;;;12.10;99.90;;;;;;5076075;28;20507;-81
2022/05/10 02:57:42;;;;;;;6.10;2.87;;;12.10;99.90;;;;;;5058180;28;20175;-81
2022/05/10 03:00:08;;;;;;;5.07;2.37;;;12.00;1.00;;;;;;5075970;28;20408;-81
2022/05/10 03:02:39;;;;;;;4.63;2.33;;;12.00;1.00;;;;;;5075859;28;20414;-81
2022/05/10 03:05:06;;;;;;;5.10;2.07;;;12.00;1.00;;;;;;5057625;28;20409;-81
2022/05/10 03:07:32;;;;;;;3.23;1.50;;;12.00;1.00;;;;;;5075828;28;20413;-81
2022/05/10 03:09:57;;;;;;;2.83;1.83;;;12.00;99.90;;;;;;5075717;28;20412;-81
2022/05/10 03:12:23;;;;;;;3.17;2.07;;;11.90;99.90;;;;;;5075642;28;20790;-82
2022/05/10 03:14:49;;;;;;;6.57;2.57;;;11.90;99.90;;;;;;5075720;28;20177;-81
2022/05/10 03:17:15;;;;;;;5.90;2.37;;;12.00;99.90;;;;;;5075804;28;20227;-81
2022/05/10 03:19:42;;;;;;;5.97;2.60;;;11.90;99.90;;;;;;5075261;28;20407;-81
2022/05/10 03:22:09;;;;;;;6.07;2.53;;;11.90;1.00;;;;;;5075620;28;20167;-81
2022/05/10 03:24:34;;;;;;;10.37;2.13;;;11.90;1.00;;;;;;5075452;28;20411;-82
2022/05/10 03:27:03;;;;;;;5.23;2.70;;;11.90;1.00;;;;;;5075557;28;20413;-82
2022/05/10 03:29:29;;;;;;;4.57;2.50;;;11.90;1.00;;;;;;5075415;28;20185;-81
2022/05/10 03:31:55;;;;;;;7.30;3.00;;;11.90;24.60;;;;;;5075319;28;20487;-81
2022/05/10 03:37:05;;;;;;;5.33;2.80;;;11.90;99.90;;;;;;5075587;28;20439;-81
2022/05/10 03:39:30;;;;;;;6.20;2.10;;;11.90;99.90;;;;;;5057499;28;20412;-81
2022/05/10 03:41:56;;;;;;;5.80;2.10;;;11.90;99.90;;;;;;5075144;28;20184;-81
2022/05/10 03:44:22;;;;;;;5.10;2.30;;;12.00;99.90;;;;;;5075293;28;20176;-82
2022/05/10 03:46:47;;;;;;;5.80;2.23;;;12.00;99.90;;;;;;5075082;28;20169;-81
2022/05/10 03:49:14;;;;;;;8.83;2.50;;;11.90;1.00;;;;;;5074478;28;20206;-81
2022/05/10 03:51:39;;;;;;;5.03;2.13;;;12.00;1.00;;;;;;5074992;28;20213;-82
2022/05/10 03:54:05;;;;;;;4.40;3.10;;;12.00;1.00;;;;;;5074991;28;20464;-82
2022/05/10 03:56:31;;;;;;;6.13;3.00;;;12.00;1.00;;;;;;5074959;28;20578;-81
2022/05/10 03:58:57;;;;;;;5.40;2.70;;;12.00;1.00;;;;;;5074819;28;20639;-82
2022/05/10 04:01:22;;;;;;;4.90;2.27;;;12.00;1.00;;;;;;5074279;28;20434;-82
2022/05/10 04:03:49;;;;;;;5.70;2.80;;;12.00;1.00;;;;;;5074390;28;20464;-81
2022/05/10 04:06:15;;;;;;;5.60;3.03;;;12.10;99.90;;;;;;5074706;28;20165;-82
2022/05/10 04:08:41;;;;;;;5.10;2.70;;;12.10;99.90;;;;;;5074629;28;20417;-82
2022/05/10 04:11:10;;;;;;;6.00;2.07;;;12.10;40.80;;;;;;5074539;28;20478;-81
2022/05/10 04:13:37;;;;;;;4.60;2.20;;;12.20;1.00;;;;;;5074271;28;20678;-82
2022/05/10 04:16:03;;;;;;;3.40;1.83;;;12.20;1.00;;;;;;5074530;28;20495;-82
2022/05/10 04:18:29;;;;;;;9.10;2.80;;;12.20;99.90;;;;;;5074139;28;20844;-81
2022/05/10 04:20:54;;;;;;;5.50;2.13;;;12.20;99.90;;;;;;5056573;28;20408;-82
2022/05/10 04:23:20;;;;;;;5.23;2.00;;;12.30;1.00;;;;;;5074198;28;20227;-82
2022/05/10 04:25:46;;;;;;;3.90;2.00;;;12.30;99.90;;;;;;5074332;28;20672;-82
2022/05/10 04:28:12;;;;;;;11.87;2.60;;;12.30;99.90;;;;;;5074126;28;20169;-82
2022/05/10 04:30:40;;;;;;;5.30;2.87;;;12.50;1.00;;;;;;5074103;28;20189;-81
2022/05/10 04:33:11;;;;;;;3.90;1.77;;;12.40;1.00;;;;;;5073697;28;20942;-81
2022/05/10 04:35:37;;;;;;;3.57;1.90;;;12.50;1.00;;;;;;5074012;28;20504;-82
2022/05/10 04:38:04;;;;;;;5.43;2.83;;;12.40;99.90;;;;;;5074115;28;20514;-80
2022/05/10 04:43:15;;;;;;;4.67;2.10;;;12.50;99.90;;;;;;5074351;28;20428;-81
2022/05/10 04:45:40;;;;;;;6.70;2.33;;;12.50;99.90;;;;;;5073941;28;20411;-81
2022/05/10 04:48:06;;;;;;;5.53;2.87;;;12.60;99.90;;;;;;5073465;28;20256;-82
2022/05/10 04:50:32;;;;;;;7.97;2.80;;;12.60;1.00;;;;;;5073562;28;20223;-83
2022/05/10 04:53:00;;;;;;;8.00;3.50;;;12.70;1.00;;;;;;5055859;28;20695;-82
2022/05/10 04:55:26;;;;;;;4.93;2.80;;;12.70;1.00;;;;;;5073855;28;20924;-82
2022/05/10 04:57:51;;;;;;;4.90;2.37;;;12.70;1.00;;;;;;5073694;28;20450;-82
2022/05/10 05:00:17;;;;;;;5.33;3.23;;;12.80;1.00;;;;;;5073643;28;20528;-83
2022/05/10 05:02:43;;;;;;;6.93;2.60;;;12.90;1.00;;;;;;5055841;28;20177;-83
2022/05/10 05:05:14;;;;;;;8.10;2.50;;;12.90;99.90;;;;;;5055403;28;20415;-82
2022/05/10 05:07:40;;;;;;;2.80;2.40;;;12.90;99.90;;;;;;5073739;28;20208;-84
2022/05/10 05:10:07;;;;;;;4.70;2.40;;;13.00;99.90;;;;;;5074764;28;20409;-82
2022/05/10 05:12:33;;;;;;;4.33;2.03;;;13.10;1.00;;;;;;5054493;28;20567;-83
2022/05/10 05:15:03;;;;;;;7.00;2.43;;;13.10;1.00;;;;;;5073367;28;20417;-83
2022/05/10 05:17:29;;;;;;;6.40;2.63;;;13.20;1.00;;;;;;5073367;28;20811;-84
2022/05/10 05:19:54;;;;;;;6.03;3.00;;;13.30;99.90;;;;;;5072783;28;20417;-85
2022/05/10 05:22:20;;;;;;;5.50;2.83;;;13.30;99.90;;;;;;5057696;28;20620;-83
2022/05/10 05:24:45;;;;;;;5.10;2.27;;;13.30;86.40;;;;;;5060242;28;20189;-83
2022/05/10 05:27:11;;;;;;;4.47;2.23;;;13.40;1.00;;;;;;5060990;28;20191;-83
2022/05/10 05:29:36;;;;;;;4.87;3.00;;;13.50;1.00;;;;;;5062972;28;20242;-83
2022/05/10 05:32:08;;;;;;;5.13;2.70;;;13.60;1.00;;;;;;5054596;28;20199;-81
2022/05/10 05:34:35;;;;;;;6.00;2.30;;;13.60;1.00;;;;;;5051335;28;20707;-82
2022/05/10 05:39:45;;;;;;;6.20;3.13;;;13.70;99.90;;;;;;5053407;28;20412;-82
2022/05/10 05:42:13;;;;;;;4.93;3.33;;;13.80;1.00;;;;;;5053026;28;20911;-83
2022/05/10 05:44:39;;;;;;;7.40;3.10;;;13.80;99.90;;;;;;5034934;28;20292;-84
2022/05/10 05:47:05;;;;;;;7.73;2.97;;;14.00;99.90;;;;;;5052856;28;20502;-83
2022/05/10 05:49:30;;;;;;;5.63;2.57;;;14.00;99.90;;;;;;5052424;28;20214;-83
2022/05/10 05:52:03;;;;;;;5.80;2.67;;;14.20;25.40;;;;;;5052707;28;20222;-83
2022/05/10 05:54:31;;;;;;;4.60;1.93;;;14.30;1.00;;;;;;5035003;28;20174;-82
2022/05/10 05:57:05;;;;;;;5.97;3.00;;;14.40;1.00;;;;;;5052846;28;20499;-83
2022/05/10 05:59:31;;;;;;;3.27;2.03;;;14.50;1.00;;;;;;5052916;28;20423;-83
2022/05/10 06:01:57;;;;;;;7.53;3.10;;;14.60;64.20;;;;;;5052785;28;20405;-83
2022/05/10 06:04:22;;;;;;;5.37;3.37;;;15.00;99.90;;;;;;5052450;28;20415;-83
2022/05/10 06:06:48;;;;;;;5.83;2.90;;;15.10;99.90;;;;;;5052718;28;20403;-83
2022/05/10 06:09:13;;;;;;;4.57;2.90;;;15.20;99.90;;;;;;5034861;28;20230;-82
2022/05/10 06:11:39;;;;;;;6.17;3.30;;;15.40;99.90;;;;;;5052571;28;20705;-83
2022/05/10 06:14:05;;;;;;;7.13;3.30;;;15.40;78.70;;;;;;5052719;28;20187;-82
2022/05/10 06:16:33;;;;;;;5.63;3.23;;;15.50;99.90;;;;;;5052624;28;20427;-83
2022/05/10 06:18:59;;;;;;;7.70;3.10;;;15.20;99.90;;;;;;5034938;28;20615;-82
2022/05/10 06:21:24;;;;;;;5.87;2.47;;;15.00;1.00;;;;;;5052606;28;20420;-82
2022/05/10 06:23:50;;;;;;;4.80;2.80;;;15.10;99.90;;;;;;5054580;28;20269;-83
2022/05/10 06:26:16;;;;;;;5.10;2.63;;;15.30;1.00;;;;;;5056565;28;20231;-83
2022/05/10 06:28:41;;;;;;;4.63;2.90;;;16.70;1.00;;;;;;5056481;28;20178;-83
2022/05/10 06:31:09;;;;;;;5.63;2.80;;;16.30;1.00;;;;;;5056443;28;20216;-82
2022/05/10 06:33:36;;;;;;;6.53;2.97;;;16.70;99.90;;;;;;5056155;28;20170;-82
2022/05/10 06:36:02;;;;;;;7.20;2.60;;;17.90;99.90;;;;;;5056498;28;20461;-84
2022/05/10 06:38:27;;;;;;;5.70;3.37;;;18.30;99.90;;;;;;5056435;28;20442;-82
2022/05/10 06:41:00;;;;;;;4.77;3.37;;;18.20;99.90;;;;;;5056329;28;20413;-81
2022/05/10 06:43:25;;;;;;;6.97;3.03;;;18.40;99.90;;;;;;5056344;28;20188;-81
2022/05/10 06:45:51;;;;;;;4.30;2.50;;;18.40;99.90;;;;;;5056316;28;20475;-82
2022/05/10 06:48:17;;;;;;;5.50;2.40;;;18.70;99.90;;;;;;5055870;28;20209;-81
2022/05/10 06:50:44;;;;;;;3.80;2.57;;;19.10;99.90;;;;;;5055836;28;20219;-81
2022/05/10 06:53:10;;;;;;;6.20;2.93;;;19.10;99.90;;;;;;5056195;28;20425;-81
2022/05/10 06:55:38;;;;;;;5.90;2.77;;;19.40;99.90;;;;;;5056162;28;20907;-83
2022/05/10 06:58:04;;;;;;;6.03;3.50;;;19.90;99.90;;;;;;5038181;28;20961;-81
2022/05/10 07:00:32;;;;;;;3.93;2.70;;;19.50;99.70;;;;;;5056039;28;20424;-80
2022/05/10 07:02:58;;;;;;;3.90;2.43;;;19.60;99.90;;;;;;5055593;28;20916;-82
2022/05/10 07:05:23;;;;;;;5.60;2.27;;;19.90;99.90;;;;;;5055912;28;20407;-81
2022/05/10 07:07:49;;;;;;;4.93;2.47;;;19.70;99.90;;;;;;5055825;28;20626;-81
2022/05/10 07:10:17;;;;;;;6.40;3.20;;;19.80;99.90;;;;;;5037946;28;20173;-81
2022/05/10 07:12:44;;;;;;;5.83;3.00;;;19.90;99.90;;;;;;5055823;28;20533;-81
2022/05/10 07:15:16;;;;;;;4.67;2.50;;;20.00;99.90;;;;;;5055778;28;20413;-81
2022/05/10 07:17:41;;;;;;;6.37;2.90;;;20.40;99.90;;;;;;5055430;28;20427;-80
2022/05/10 07:20:09;;;;;;;5.33;2.83;;;20.80;99.90;;;;;;5055656;28;20411;-81
2022/05/10 07:22:36;;;;;;;4.80;3.40;;;20.30;99.90;;;;;;5037622;28;20668;-81
2022/05/10 07:25:02;;;;;;;5.73;2.93;;;20.40;99.90;;;;;;5037678;28;20421;-85
2022/05/10 07:27:28;;;;;;;5.20;3.10;;;21.20;99.90;;;;;;5055411;28;20423;-80
2022/05/10 07:29:57;;;;;;;3.37;2.50;;;21.30;90.10;;;;;;5055524;28;20402;-83
2022/05/10 07:32:24;;;;;;;4.97;2.50;;;21.60;81.90;;;;;;5055283;28;20210;-80
2022/05/10 07:34:50;;;;;;;5.43;2.47;;;22.30;66.20;;;;;;5054270;28;20906;-81
2022/05/10 07:37:16;;;;;;;4.03;2.70;;;23.70;41.70;;;;;;5055328;28;20484;-83
2022/05/10 07:39:41;;;;;;;8.10;3.27;;;24.50;18.20;;;;;;5055315;28;20181;-80
2022/05/10 07:42:07;;;;;;;4.23;2.73;;;24.60;13.50;;;;;;5055128;28;20427;-81
2022/05/10 07:44:33;;;;;;;5.17;2.27;;;24.50;1.90;;;;;;5055080;28;20177;-81
2022/05/10 07:46:59;;;;;;;4.10;2.90;;;25.10;6.40;;;;;;5055156;28;20276;-81
2022/05/10 07:49:25;;;;;;;6.10;3.17;;;25.30;1.00;;;;;;5054530;28;20464;-81
2022/05/10 07:51:51;;;;;;;4.37;3.13;;;24.50;1.00;;;;;;5055032;28;20476;-82
2022/05/10 07:54:17;;;;;;;3.83;3.13;;;24.40;1.00;;;;;;5055100;28;20491;-83
2022/05/10 07:56:43;;;;;;;5.83;3.27;;;23.30;1.00;;;;;;5054939;28;20517;-81
2022/05/10 07:59:08;;;;;;;4.10;3.03;;;23.10;1.00;;;;;;5054975;28;20245;-82
2022/05/10 08:01:37;;;;;;;3.50;2.80;;;23.70;1.00;;;;;;5054899;28;20692;-81
2022/05/10 08:04:04;;;;;;;2.30;1.97;;;23.90;1.00;;;;;;5054490;28;20165;-80
2022/05/10 08:06:30;;;;;;;5.70;2.57;;;23.90;1.00;;;;;;5036967;28;20416;-82
2022/05/10 08:08:55;;;;;;;5.23;2.23;;;24.00;1.00;;;;;;5054837;28;20411;-85
2022/05/10 08:11:22;;;;;;;5.13;2.90;;;24.20;1.00;;;;;;5054638;28;20464;-82
2022/05/10 08:13:48;;;;;;;4.30;3.87;;;23.90;1.00;;;;;;5054789;28;20174;-82
2022/05/10 08:16:14;;;;;;;8.43;3.30;;;23.90;1.00;;;;;;5054681;28;20400;-82
2022/05/10 08:18:45;;;;;;;4.40;3.00;;;23.70;1.00;;;;;;5054169;28;20425;-84
2022/05/10 08:21:13;;;;;;;3.97;2.70;;;23.80;1.00;;;;;;5054628;28;20404;-84
2022/05/10 08:23:38;;;;;;;3.90;2.77;;;24.40;1.00;;;;;;5054484;28;20436;-81
2022/05/10 08:26:05;;;;;;;4.67;3.70;;;24.00;1.00;;;;;;5054454;28;20447;-83
2022/05/10 08:28:34;;;;;;;3.90;2.97;;;24.30;1.00;;;;;;5054447;28;20166;-82
2022/05/10 08:30:59;;;;;;;5.10;3.10;;;24.10;1.00;;;;;;5054340;28;20478;-82
2022/05/10 08:33:31;;;;;;;3.70;3.30;;;23.70;1.00;;;;;;5053972;28;20921;-81
2022/05/10 08:35:58;;;;;;;5.73;3.80;;;23.90;1.00;;;;;;5054363;28;20165;-82
2022/05/10 08:38:24;;;;;;;4.17;3.70;;;23.90;1.00;;;;;;5054231;28;21000;-81
2022/05/10 08:41:09;;;;;;;4.90;3.37;;;24.00;1.00;;;;;;5054096;28;20431;-81
2022/05/10 08:43:40;;;;;;;4.80;3.00;;;24.40;1.00;;;;;;5054332;28;20477;-81
2022/05/10 08:46:09;;;;;;;4.97;3.10;;;24.90;1.00;;;;;;5053941;28;20523;-81
2022/05/10 08:48:35;;;;;;;5.30;3.20;;;25.60;1.00;;;;;;5053696;28;20767;-81
2022/05/10 08:51:01;;;;;;;3.43;2.60;;;25.70;1.00;;;;;;5053652;28;20479;-82
2022/05/10 08:53:27;;;;;;;4.80;2.90;;;25.90;1.00;;;;;;5053940;28;20265;-91
2022/05/10 08:56:15;;;;;;;2.97;2.40;;;26.20;1.00;;;;;;5046630;28;20510;-89
2022/05/10 08:58:58;;;;;;;4.77;3.57;;;26.00;1.00;;;;;;5073144;28;20226;-87
2022/05/10 09:01:28;;;;;;;3.53;3.23;;;25.80;1.00;;;;;;5073587;28;20408;-89
2022/05/10 09:04:17;;;;;;;3.60;2.80;;;25.30;1.00;;;;;;5072966;28;20439;-89
2022/05/10 09:06:56;;;;;;;7.00;4.00;;;24.80;1.00;;;;;;5071846;28;20420;-87
2022/05/10 09:09:36;;;;;;;5.97;3.10;;;24.60;1.00;;;;;;5071690;28;20439;-85
2022/05/10 09:12:29;;;;;;;6.97;3.20;;;24.50;1.00;;;;;;5053899;28;20474;-85
2022/05/10 09:15:06;;;;;;;5.17;2.90;;;24.70;1.00;;;;;;5072038;28;20407;-86
2022/05/10 09:17:36;;;;;;;3.60;2.80;;;25.40;1.00;;;;;;5072310;28;20426;-86
2022/05/10 09:20:04;;;;;;;4.07;2.90;;;26.20;1.00;;;;;;5054825;28;20876;-86
2022/05/10 09:22:51;;;;;;;6.00;2.80;;;27.50;1.00;;;;;;5073271;28;20839;-86
2022/05/10 09:25:28;;;;;;;3.10;2.80;;;28.40;1.00;;;;;;5073364;28;20415;-87
2022/05/10 09:27:54;;;;;;;5.10;3.33;;;28.80;1.00;;;;;;5073246;28;20414;-86
2022/05/10 09:30:34;;;;;;;6.33;3.20;;;29.50;1.00;;;;;;5073178;28;20415;-86
2022/05/10 09:36:03;;;;;;;8.00;3.33;;;29.20;1.00;;;;;;5073485;28;20417;-87
2022/05/10 09:38:30;;;;;;;4.87;3.10;;;28.50;1.00;;;;;;5073056;28;20494;-87
2022/05/10 09:40:56;;;;;;;4.43;3.10;;;27.90;1.00;;;;;;5073033;28;20464;-85
2022/05/10 09:43:39;;;;;;;3.33;2.50;;;27.50;1.00;;;;;;5073133;28;20506;-87
2022/05/10 09:46:07;;;;;;;4.60;3.00;;;27.40;1.00;;;;;;5072990;28;20192;-87
2022/05/10 09:48:33;;;;;;;2.77;1.70;;;27.30;1.00;;;;;;5054573;28;20415;-86
2022/05/10 09:50:59;;;;;;;4.03;2.93;;;27.50;1.00;;;;;;5072567;28;20968;-84
2022/05/10 09:53:33;;;;;;;4.23;2.50;;;27.20;1.00;;;;;;5055896;28;20222;-87
2022/05/10 09:56:08;;;;;;;4.77;2.73;;;27.00;1.00;;;;;;5075039;28;20667;-86
2022/05/10 09:58:41;;;;;;;3.80;2.37;;;27.50;1.00;;;;;;5071906;28;20426;-86
2022/05/10 10:01:13;;;;;;;3.67;2.23;;;28.00;1.00;;;;;;5054256;28;20506;-86
2022/05/10 10:03:45;;;;;;;4.57;2.00;;;28.30;1.00;;;;;;5053997;28;20946;-86
2022/05/10 10:06:23;;;;;;;5.03;3.00;;;28.50;1.00;;;;;;5072206;28;20958;-86
2022/05/10 10:08:57;;;;;;;3.10;2.20;;;28.20;1.00;;;;;;5054289;28;20422;-86
2022/05/10 10:11:32;;;;;;;3.43;2.43;;;28.10;1.00;;;;;;5072147;28;20512;-87
2022/05/10 10:14:08;;;;;;;5.03;2.53;;;28.10;1.00;;;;;;5071572;28;20490;-87
2022/05/10 10:16:48;;;;;;;2.63;2.27;;;28.30;1.00;;;;;;5070615;28;20460;-92
2022/05/10 10:19:48;;;;;;;3.67;2.00;;;28.90;1.00;;;;;;5053917;28;20768;-90
2022/05/10 10:22:34;;;;;;;2.67;2.13;;;28.90;1.00;;;;;;5067577;28;20443;-88
2022/05/10 10:25:24;;;;;;;3.17;2.80;;;28.80;1.00;;;;;;5071309;28;20423;-91
2022/05/10 10:28:01;;;;;;;3.13;2.27;;;29.00;1.00;;;;;;5072314;28;20817;-87
2022/05/10 10:30:45;;;;;;;4.70;2.07;;;28.50;1.00;;;;;;5054486;28;20501;-91
2022/05/10 10:33:46;;;;;;;3.20;2.30;;;28.30;1.00;;;;;;5072072;28;20930;-86
2022/05/10 10:36:20;;;;;;;5.03;2.47;;;28.80;1.00;;;;;;5072089;28;20406;-88
2022/05/10 10:39:36;;;;;;;2.40;2.20;;;29.30;1.00;;;;;;5072317;28;20415;-88
2022/05/10 10:42:12;;;;;;;5.00;2.80;;;29.20;1.00;;;;;;4996684;28;20424;-86
2022/05/10 10:44:43;;;;;;;6.37;2.70;;;30.00;1.00;;;;;;5071896;28;20491;-85
2022/05/10 10:47:25;;;;;;;3.17;1.90;;;30.30;1.00;;;;;;5071815;28;20407;-87
2022/05/10 10:50:08;;;;;;;3.73;2.63;;;30.50;1.00;;;;;;5071972;28;20450;-87
2022/05/10 10:52:34;;;;;;;9.60;3.40;;;30.60;1.00;;;;;;5053933;28;20528;-87
2022/05/10 10:55:00;;;;;;;2.90;2.33;;;31.10;1.00;;;;;;5087115;28;20414;-90
2022/05/10 10:57:48;;;;;;;3.57;2.37;;;30.90;1.00;;;;;;5074148;28;20263;-89
2022/05/10 11:00:20;;;;;;;2.80;2.07;;;30.80;1.00;;;;;;5070555;28;20429;-88
2022/05/10 11:03:28;;;;;;;5.00;2.00;;;30.80;1.00;;;;;;5073508;28;20477;-88
2022/05/10 11:06:18;;;;;;;4.87;2.27;;;29.70;1.00;;;;;;5071489;28;20427;-91
2022/05/10 11:09:34;;;;;;;3.53;2.20;;;28.70;1.00;;;;;;5071916;28;20490;-88
2022/05/10 11:12:44;;;;;;;7.53;2.13;;;28.00;1.00;;;;;;5003555;28;20511;-87
2022/05/10 11:15:24;;;;;;;5.63;2.67;;;26.90;1.00;;;;;;5075601;28;20412;-89
2022/05/10 11:18:03;;;;;;;4.90;1.80;;;26.80;1.00;;;;;;5075197;28;20448;-88
2022/05/10 11:20:56;;;;;;;3.93;2.40;;;26.70;1.00;;;;;;5075144;28;20415;-87
2022/05/10 11:23:59;;;;;;;2.73;2.10;;;26.80;1.00;;;;;;5075317;28;20418;-89
2022/05/10 11:27:02;;;;;;;7.07;2.63;;;27.10;1.00;;;;;;5075323;28;20887;-89
2022/05/10 11:29:48;;;;;;;4.70;2.37;;;27.20;1.00;;;;;;5075361;28;20411;-87
2022/05/10 11:32:29;;;;;;;2.40;2.20;;;27.10;1.00;;;;;;5074819;28;20402;-87
2022/05/10 11:35:06;;;;;;;5.33;2.87;;;27.60;1.00;;;;;;5057463;28;20973;-89
2022/05/10 11:37:40;;;;;;;9.00;3.20;;;27.80;1.00;;;;;;5075371;28;20502;-88
2022/05/10 11:40:05;;;;;;;4.37;1.80;;;27.80;1.00;;;;;;5056997;28;20415;-86
2022/05/10 11:42:59;;;;;;;5.10;3.20;;;27.60;1.00;;;;;;5075144;28;20810;-88
2022/05/10 11:46:03;;;;;;;3.13;2.90;;;27.40;1.00;;;;;;5058031;28;20254;-90
2022/05/10 11:48:39;;;;;;;4.60;2.40;;;27.70;1.00;;;;;;5057024;28;20451;-88
2022/05/10 11:51:39;;;;;;;3.87;1.70;;;28.60;1.00;;;;;;5074783;28;20459;-89
2022/05/10 11:54:39;;;;;;;2.73;1.83;;;28.50;1.00;;;;;;5057136;28;20430;-89
2022/05/10 11:57:10;;;;;;;4.17;2.97;;;28.20;1.00;;;;;;5058626;28;20773;-89
2022/05/10 11:59:40;;;;;;;3.27;1.90;;;27.90;1.00;;;;;;5059329;28;20469;-88
2022/05/10 12:02:27;;;;;;;3.03;2.40;;;28.10;1.00;;;;;;5055753;28;20994;-90
2022/05/10 12:05:17;;;;;;;2.90;2.30;;;28.00;1.00;;;;;;5056890;28;20963;-89
2022/05/10 12:07:48;;;;;;;4.50;2.97;;;27.30;1.00;;;;;;5056526;28;20545;-90
2022/05/10 12:10:35;;;;;;;3.53;2.37;;;27.20;1.00;;;;;;5074751;28;20430;-90
2022/05/10 12:21:19;;;;;;;3.87;3.00;;;27.40;1.00;;;;;;5074389;28;20404;-88
2022/05/10 12:22:58;;;;;;;2.90;2.47;;;28.00;1.00;;;;;;5075133;28;20473;-87
2022/05/10 12:25:53;;;;;;;2.20;1.77;;;28.20;1.00;;;;;;5057005;28;20962;-89
2022/05/10 12:28:43;;;;;;;3.97;2.50;;;28.00;1.00;;;;;;5057594;28;20427;-90
2022/05/10 12:31:47;;;;;;;4.47;2.67;;;27.70;1.00;;;;;;5089396;28;20418;-90
2022/05/10 12:34:42;;;;;;;3.47;2.90;;;27.20;1.00;;;;;;5044045;28;20906;-89
2022/05/10 12:37:29;;;;;;;3.00;2.70;;;27.10;1.00;;;;;;5089388;28;20415;-92
2022/05/10 12:40:09;;;;;;;4.57;2.60;;;27.00;1.00;;;;;;5096663;28;20460;-89
2022/05/10 12:42:39;;;;;;;3.10;2.80;;;26.70;1.00;;;;;;5076660;28;20503;-87
2022/05/10 12:45:32;;;;;;;4.63;2.50;;;26.70;1.00;;;;;;5096504;28;20414;-94
2022/05/10 12:48:19;;;;;;;3.93;3.10;;;26.80;1.00;;;;;;5094172;28;20502;-88
2022/05/10 12:50:55;;;;;;;3.37;3.07;;;27.10;1.00;;;;;;5106944;28;20468;-87
2022/05/10 12:53:28;;;;;;;4.53;3.23;;;27.00;1.00;;;;;;5086935;28;20552;-92
2022/05/10 12:56:11;;;;;;;6.77;3.20;;;26.80;1.00;;;;;;5082370;28;20416;-92
2022/05/10 12:58:41;;;;;;;3.90;3.50;;;26.70;1.00;;;;;;5075507;28;20419;-87
2022/05/10 13:01:07;;;;;;;5.33;3.80;;;26.50;1.00;;;;;;5091007;28;20591;-88
2022/05/10 13:03:37;;;;;;;4.57;3.37;;;26.40;1.00;;;;;;5093005;28;20426;-87
2022/05/10 13:06:20;;;;;;;7.93;2.70;;;26.30;1.00;;;;;;5092534;28;20416;-88
2022/05/10 13:09:00;;;;;;;4.80;3.07;;;26.10;1.00;;;;;;5093804;28;20470;-88
2022/05/10 13:11:31;;;;;;;3.40;3.10;;;25.70;1.00;;;;;;5085260;28;20917;-89
2022/05/10 13:14:00;;;;;;;5.40;3.33;;;25.70;1.00;;;;;;5079989;28;20462;-87
2022/05/10 13:16:26;;;;;;;4.93;2.77;;;25.70;1.00;;;;;;5088234;28;20425;-88
2022/05/10 13:18:54;;;;;;;4.73;3.37;;;25.50;1.00;;;;;;5092050;28;20426;-87
2022/05/10 13:21:28;;;;;;;6.10;3.77;;;25.40;1.00;;;;;;5093614;28;20574;-89
2022/05/10 13:23:56;;;;;;;4.10;3.40;;;25.50;1.00;;;;;;5077068;28;20423;-86
2022/05/10 13:26:22;;;;;;;3.27;3.07;;;25.40;1.00;;;;;;5073097;28;20422;-88
2022/05/10 13:28:54;;;;;;;3.83;3.53;;;25.40;1.00;;;;;;5073552;28;20415;-85
2022/05/10 13:31:23;;;;;;;5.50;4.10;;;25.40;1.00;;;;;;5106420;28;20186;-80
2022/05/10 13:33:49;;;;;;;4.10;3.03;;;25.50;1.00;;;;;;5112026;28;20418;-83
2022/05/10 13:36:18;;;;;;;6.70;3.93;;;25.60;1.00;;;;;;5107303;28;20505;-84
2022/05/10 13:38:46;;;;;;;7.83;3.37;;;25.80;1.00;;;;;;5072435;28;20535;-85
2022/05/10 13:41:15;;;;;;;4.00;3.00;;;25.60;1.00;;;;;;5072313;28;20625;-87
2022/05/10 13:43:47;;;;;;;4.00;3.60;;;25.50;1.00;;;;;;5071217;28;20411;-85